Últimos artigos:
MSK144, FT8… using an IC-9700 and WSJT-X
Resolvendo um problema de áudio no GNU Radio
Converter um número Real para o formato binário em vírgula flutuante segundo a Norma IEEE-754
VirtualBox sobre Debian 10 (buster) não encontra dispositivos USB
Falta de som no Morse Runner em Linux?
Touchpad tapping, em Debian Buster (10)
Últimas fotos:
Últimos METARs:
LPAZ 171800Z 20014KT 9000 -RA FEW007 SCT01...
LPFR 171800Z 27005KT CAVOK 21/15 Q1019=
LPHR 171800Z 21015KT 9999 SCT012 BKN025 22...
LPLA 171800Z /////KT 9999 SCT018 SCT030 21...
LPMA 171800Z 20007KT 9999 FEW016 23/19 Q10...
LPPD 171800Z 17008KT 9999 FEW004 SCT014 22...
LPPR 171800Z 20006KT 4000 -RADZ BR OVC002 ...
LPPS 171800Z 13008KT 9999 FEW014 22/19 Q10...
LPPT 171800Z 28004KT 240V310 9999 FEW018 2...
Últimos QSOs:
2021/08/24-22:06 70cm EA8TL (JORGE)
2021/08/24-21:44 2m EA7BW (JUAN)
2021/08/24-21:43 2m CN8JQ (MOHAMED)
2021/08/24-21:42 2m EA8HB (HUGO)
2021/08/24-21:40 2m F4DXV (JEROME)
2021/08/24-21:39 2m EA1FID (PABLO)
  UTC

Fatal error: Allowed memory size of 268435456 bytes exhausted (tried to allocate 16777216 bytes) in /web/htdocs/www.airlomba.net/home/index.php on line 266